Time;durP1;ratioP1;P1;durP2;ratioP2;P2;SDS_P1;SDS_P2;PMS_P1;PMS_P2;Temp;Humidity;BMP_temperature;BMP_pressure;BME280_temperature;BME280_humidity;BME280_pressure;Samples;Min_cycle;Max_cycle;Signal;HPM_P1;HPM_P2
2022/12/08 05:01:09;;;;;;;1.23;1.02;;;2.90;99.90;;;;;;5654567;23;20658;-66
2022/12/08 05:03:35;;;;;;;2.70;2.15;;;2.90;99.90;;;;;;4983304;28;20224;-66
2022/12/08 05:06:02;;;;;;;1.00;1.00;;;2.90;99.90;;;;;;4993592;28;20215;-67
2022/12/08 05:08:30;;;;;;;2.42;2.33;;;2.90;99.90;;;;;;4997211;28;20211;-67
2022/12/08 05:11:01;;;;;;;1.65;1.65;;;2.90;99.90;;;;;;4990878;28;20287;-67
2022/12/08 05:13:28;;;;;;;1.45;1.45;;;2.90;99.90;;;;;;4976693;28;20267;-67
2022/12/08 05:16:01;;;;;;;2.35;2.15;;;2.80;99.90;;;;;;4967369;28;20260;-66
2022/12/08 05:18:29;;;;;;;1.77;1.77;;;2.80;99.90;;;;;;4963133;28;20216;-66
2022/12/08 05:20:56;;;;;;;1.50;1.40;;;2.80;99.90;;;;;;4958114;28;20236;-67
2022/12/08 05:23:22;;;;;;;1.55;1.45;;;2.80;99.90;;;;;;4973962;28;20209;-66
2022/12/08 05:25:49;;;;;;;2.35;2.17;;;2.80;99.90;;;;;;4975770;28;20205;-65
2022/12/08 05:28:16;;;;;;;1.92;1.92;;;2.80;99.90;;;;;;4973256;28;20212;-66
2022/12/08 05:30:42;;;;;;;0.88;0.88;;;2.80;99.90;;;;;;4974189;28;20232;-66
2022/12/08 05:33:09;;;;;;;2.50;2.33;;;2.80;99.90;;;;;;4973949;28;20570;-65
2022/12/08 05:35:37;;;;;;;1.55;1.40;;;2.80;99.90;;;;;;4970583;28;20209;-65
2022/12/08 05:38:05;;;;;;;2.55;2.45;;;2.70;99.90;;;;;;4964270;28;20235;-65
2022/12/08 05:40:31;;;;;;;3.03;2.92;;;2.70;99.90;;;;;;4958147;28;20240;-65
2022/12/08 05:42:58;;;;;;;2.47;1.63;;;2.70;99.90;;;;;;4967212;28;20602;-66
2022/12/08 05:45:24;;;;;;;2.53;2.33;;;2.70;99.90;;;;;;4966056;28;20562;-66
2022/12/08 05:47:53;;;;;;;0.80;0.80;;;2.70;99.90;;;;;;4969491;28;20267;-66
2022/12/08 05:50:20;;;;;;;0.70;0.70;;;2.60;99.90;;;;;;4964034;28;20220;-66
2022/12/08 05:52:48;;;;;;;2.35;2.25;;;2.60;99.90;;;;;;4969049;28;21706;-66
2022/12/08 05:55:14;;;;;;;3.50;2.78;;;2.60;99.90;;;;;;4968192;28;20550;-66
2022/12/08 05:57:41;;;;;;;1.90;1.90;;;2.60;99.90;;;;;;4970713;28;20236;-66
2022/12/08 06:00:09;;;;;;;1.25;1.25;;;2.60;99.90;;;;;;4965799;28;20288;-66
2022/12/08 06:02:36;;;;;;;1.35;1.33;;;2.60;99.90;;;;;;4972350;28;20236;-66
2022/12/08 06:05:02;;;;;;;1.05;1.05;;;2.60;99.90;;;;;;4970152;28;20212;-66
2022/12/08 06:07:29;;;;;;;2.05;1.95;;;2.60;99.90;;;;;;4969309;28;20587;-65
2022/12/08 06:09:57;;;;;;;0.52;0.50;;;2.60;99.90;;;;;;4964023;28;20213;-66
2022/12/08 06:12:24;;;;;;;1.48;1.48;;;2.60;99.90;;;;;;4966770;28;20233;-66
2022/12/08 06:14:50;;;;;;;2.97;2.10;;;2.60;99.90;;;;;;4962963;28;20206;-66
2022/12/08 06:17:17;;;;;;;1.85;1.85;;;2.50;99.90;;;;;;4971832;28;20691;-67
2022/12/08 06:19:44;;;;;;;1.08;1.05;;;2.50;99.90;;;;;;4962592;28;20213;-67
2022/12/08 06:22:10;;;;;;;0.77;0.77;;;2.50;99.90;;;;;;4965063;28;20231;-66
2022/12/08 06:24:37;;;;;;;1.45;1.40;;;2.50;99.90;;;;;;4960492;28;20218;-66
2022/12/08 06:27:05;;;;;;;2.17;2.00;;;2.50;99.90;;;;;;4966493;28;20209;-66
2022/12/08 06:29:32;;;;;;;2.63;2.58;;;2.50;99.90;;;;;;4968221;28;20659;-65
2022/12/08 06:31:58;;;;;;;2.08;1.98;;;2.50;99.90;;;;;;4970918;28;20232;-65
2022/12/08 06:34:25;;;;;;;2.60;1.73;;;2.50;99.90;;;;;;4960932;28;20219;-66
2022/12/08 06:36:52;;;;;;;1.00;1.00;;;2.50;99.90;;;;;;4966649;28;20524;-66
2022/12/08 06:39:19;;;;;;;0.30;0.30;;;2.60;99.90;;;;;;4971604;28;20217;-66
2022/12/08 06:44:31;;;;;;;3.47;3.13;;;2.60;99.90;;;;;;4960163;28;20757;-66
2022/12/08 06:46:58;;;;;;;2.30;2.00;;;2.50;99.90;;;;;;4971114;28;20209;-65
2022/12/08 06:49:24;;;;;;;2.08;2.08;;;2.60;99.90;;;;;;4961293;28;20591;-66
2022/12/08 06:51:51;;;;;;;0.63;0.60;;;2.60;99.90;;;;;;4971013;28;20216;-66
2022/12/08 06:54:18;;;;;;;1.15;1.10;;;2.60;99.90;;;;;;4968419;28;20536;-66
2022/12/08 06:56:44;;;;;;;0.80;0.80;;;2.60;99.90;;;;;;4965362;28;20573;-66
2022/12/08 06:59:11;;;;;;;1.10;1.10;;;2.60;99.90;;;;;;4960720;28;20224;-67
2022/12/08 07:01:39;;;;;;;2.40;2.30;;;2.60;99.90;;;;;;4968249;28;20244;-67
2022/12/08 07:04:06;;;;;;;4.32;2.08;;;2.60;99.90;;;;;;4970925;28;20205;-66
2022/12/08 07:06:33;;;;;;;1.08;1.08;;;2.70;99.90;;;;;;4964743;28;20589;-66
2022/12/08 07:08:59;;;;;;;1.45;1.35;;;2.70;99.90;;;;;;4966409;28;20552;-66
2022/12/08 07:11:26;;;;;;;0.90;0.90;;;2.60;99.90;;;;;;4970257;28;20331;-66
2022/12/08 07:13:55;;;;;;;1.40;1.40;;;2.70;99.90;;;;;;4960898;28;20239;-66
2022/12/08 07:16:21;;;;;;;1.90;1.48;;;2.70;99.90;;;;;;4966187;28;20617;-66
2022/12/08 07:18:50;;;;;;;1.42;1.33;;;2.70;99.90;;;;;;4972084;28;20205;-65
2022/12/08 07:21:17;;;;;;;0.85;0.85;;;2.70;99.90;;;;;;4969016;28;20228;-66
2022/12/08 07:23:47;;;;;;;1.48;1.48;;;2.70;99.90;;;;;;4969172;28;20255;-66
2022/12/08 07:26:14;;;;;;;1.30;1.20;;;2.60;99.90;;;;;;4972829;28;20544;-65
2022/12/08 07:28:42;;;;;;;0.63;0.63;;;2.50;99.90;;;;;;4973264;28;20212;-66
2022/12/08 07:31:16;;;;;;;0.90;0.88;;;2.50;99.90;;;;;;4973566;28;20260;-65
2022/12/08 07:33:43;;;;;;;2.75;1.70;;;2.40;99.90;;;;;;4974184;28;20228;-66
2022/12/08 07:36:11;;;;;;;2.67;1.90;;;2.30;99.90;;;;;;4973827;28;20232;-66
2022/12/08 07:38:38;;;;;;;1.60;1.60;;;2.20;99.90;;;;;;4968384;28;20212;-66
2022/12/08 07:41:05;;;;;;;3.42;3.30;;;2.10;99.90;;;;;;4964236;28;20236;-67
2022/12/08 07:43:31;;;;;;;2.60;2.50;;;2.00;99.90;;;;;;4959057;28;20235;-66
2022/12/08 07:45:58;;;;;;;2.35;2.25;;;2.00;99.90;;;;;;4970341;28;20222;-66
2022/12/08 07:48:25;;;;;;;4.28;3.97;;;1.90;99.90;;;;;;4962769;28;20215;-66
2022/12/08 07:50:59;;;;;;;4.05;2.50;;;1.80;99.90;;;;;;4961403;28;20229;-67
2022/12/08 07:53:27;;;;;;;3.33;1.80;;;1.80;99.90;;;;;;4966541;28;20212;-66
2022/12/08 07:55:54;;;;;;;1.33;1.33;;;1.70;99.90;;;;;;4966308;28;20643;-67
2022/12/08 07:58:20;;;;;;;0.70;0.70;;;1.70;99.90;;;;;;4971779;28;20216;-66
2022/12/08 08:00:47;;;;;;;0.55;0.55;;;1.70;99.90;;;;;;4971188;28;20235;-66
2022/12/08 08:03:14;;;;;;;2.28;2.15;;;1.70;99.90;;;;;;4968295;28;20259;-66
2022/12/08 08:05:41;;;;;;;2.80;0.85;;;1.70;99.90;;;;;;4968874;28;20227;-67
2022/12/08 08:08:07;;;;;;;0.88;0.88;;;1.70;99.90;;;;;;4962413;28;20205;-66
2022/12/08 08:10:35;;;;;;;4.75;1.00;;;1.70;99.90;;;;;;4971245;28;20228;-66
2022/12/08 08:13:02;;;;;;;1.70;1.60;;;1.70;99.90;;;;;;4971055;28;20204;-66
2022/12/08 08:15:29;;;;;;;4.35;2.40;;;1.70;99.90;;;;;;4970619;28;20219;-66
2022/12/08 08:17:56;;;;;;;2.50;2.50;;;1.80;99.90;;;;;;4969172;28;20636;-65
2022/12/08 08:20:23;;;;;;;2.10;2.00;;;1.80;99.90;;;;;;4967099;28;20208;-66
2022/12/08 08:22:51;;;;;;;1.73;1.65;;;1.80;99.90;;;;;;4954175;28;20232;-67
2022/12/08 08:25:21;;;;;;;2.72;2.72;;;1.90;99.90;;;;;;4970904;28;20216;-66
2022/12/08 08:27:49;;;;;;;1.70;1.67;;;1.90;99.90;;;;;;4965401;28;20659;-65
2022/12/08 08:30:17;;;;;;;3.70;3.38;;;2.00;99.90;;;;;;4960907;28;20204;-66
2022/12/08 08:32:44;;;;;;;5.15;4.32;;;2.00;99.90;;;;;;4969346;28;20209;-66
2022/12/08 08:35:11;;;;;;;3.38;3.10;;;2.00;99.90;;;;;;4969763;28;20208;-66
2022/12/08 08:37:38;;;;;;;3.28;3.08;;;2.00;99.90;;;;;;4973857;28;20209;-65
2022/12/08 08:40:05;;;;;;;4.97;2.70;;;2.10;99.90;;;;;;4956371;28;20308;-65
2022/12/08 08:42:32;;;;;;;1.48;1.48;;;2.10;99.90;;;;;;4967737;28;20228;-65
2022/12/08 08:45:00;;;;;;;5.55;5.35;;;2.20;99.90;;;;;;4967134;28;20798;-66
2022/12/08 08:47:27;;;;;;;1.95;1.20;;;2.20;99.90;;;;;;4969805;28;20213;-65
2022/12/08 08:49:53;;;;;;;3.00;1.80;;;2.20;99.90;;;;;;4970397;28;20209;-66
2022/12/08 08:52:20;;;;;;;4.95;4.72;;;2.20;99.90;;;;;;4961268;28;20817;-66
2022/12/08 08:54:47;;;;;;;2.88;2.60;;;2.20;99.90;;;;;;4956370;28;20229;-65
2022/12/08 08:57:14;;;;;;;9.27;4.43;;;2.20;99.90;;;;;;4967063;28;20303;-66
2022/12/08 08:59:41;;;;;;;3.92;2.63;;;2.30;99.90;;;;;;4959486;28;20228;-65
2022/12/08 09:02:16;;;;;;;4.00;2.45;;;2.30;99.90;;;;;;4968615;28;20555;-65
2022/12/08 09:04:43;;;;;;;3.17;2.97;;;2.30;99.90;;;;;;4974270;28;20247;-65
2022/12/08 09:07:10;;;;;;;4.45;2.60;;;2.40;99.90;;;;;;4968844;28;20276;-66
2022/12/08 09:09:37;;;;;;;2.78;2.67;;;2.40;99.90;;;;;;4966590;28;20208;-66
2022/12/08 09:12:04;;;;;;;3.05;2.85;;;2.40;99.90;;;;;;4970232;28;20228;-66
2022/12/08 09:14:31;;;;;;;1.70;1.30;;;2.40;99.90;;;;;;4958977;28;20222;-65
2022/12/08 09:16:58;;;;;;;2.67;2.22;;;2.40;99.90;;;;;;4971471;28;20223;-65
2022/12/08 09:19:26;;;;;;;3.85;3.00;;;2.50;99.90;;;;;;4973747;28;20248;-66
2022/12/08 09:21:53;;;;;;;4.78;4.57;;;2.50;99.90;;;;;;4974099;28;20232;-66
2022/12/08 09:24:19;;;;;;;8.00;4.45;;;2.50;99.90;;;;;;4971894;28;20228;-65
2022/12/08 09:26:47;;;;;;;7.55;4.68;;;2.50;99.90;;;;;;4964933;28;20625;-65
2022/12/08 09:29:14;;;;;;;4.00;3.70;;;2.50;99.90;;;;;;4972641;28;20215;-65
2022/12/08 09:31:41;;;;;;;2.78;2.53;;;2.50;99.90;;;;;;4966250;28;20739;-66
2022/12/08 09:34:08;;;;;;;2.90;2.80;;;2.50;99.90;;;;;;4964704;28;20554;-66
2022/12/08 09:36:36;;;;;;;1.88;1.77;;;2.60;99.90;;;;;;4962850;28;20212;-65
2022/12/08 09:39:03;;;;;;;4.45;3.30;;;2.60;99.90;;;;;;4965850;28;20252;-65
2022/12/08 09:41:33;;;;;;;1.98;1.88;;;2.50;99.90;;;;;;4973538;28;20236;-65
2022/12/08 09:44:12;;;;;;;3.90;3.47;;;2.40;99.90;;;;;;4962433;28;20671;-66
2022/12/08 09:46:39;;;;;;;2.47;1.40;;;2.50;99.90;;;;;;4968154;28;20209;-66
2022/12/08 09:49:15;;;;;;;3.60;3.30;;;2.50;99.90;;;;;;4970197;28;20245;-65
2022/12/08 09:51:44;;;;;;;4.50;3.13;;;2.50;99.90;;;;;;4965525;28;20575;-66
2022/12/08 09:54:17;;;;;;;2.75;2.50;;;2.50;99.90;;;;;;4975290;28;20658;-65
2022/12/08 09:56:44;;;;;;;5.45;3.33;;;2.60;99.90;;;;;;4966761;28;20305;-66
2022/12/08 09:59:22;;;;;;;3.05;2.95;;;2.70;99.90;;;;;;4969738;28;20210;-65
2022/12/08 10:01:49;;;;;;;5.65;4.05;;;2.70;99.90;;;;;;4964943;28;20233;-66
2022/12/08 10:04:22;;;;;;;4.65;4.35;;;2.70;99.90;;;;;;4966444;28;20233;-66
2022/12/08 10:06:58;;;;;;;5.97;2.80;;;2.80;99.90;;;;;;4962163;28;20205;-66
2022/12/08 10:09:32;;;;;;;3.80;2.17;;;2.90;99.90;;;;;;4969527;28;20211;-65
2022/12/08 10:12:02;;;;;;;3.42;2.72;;;3.00;99.90;;;;;;4970153;28;20229;-65
2022/12/08 10:14:37;;;;;;;3.85;3.47;;;3.00;99.90;;;;;;4973345;28;20275;-65
2022/12/08 10:17:13;;;;;;;4.00;3.80;;;3.10;99.90;;;;;;4973950;28;20205;-65
2022/12/08 10:19:42;;;;;;;7.30;4.90;;;3.10;99.90;;;;;;4962090;28;20648;-67
2022/12/08 10:22:17;;;;;;;4.45;3.83;;;3.10;99.90;;;;;;4981438;28;20232;-65
2022/12/08 10:24:52;;;;;;;3.50;2.55;;;3.10;99.90;;;;;;4964175;28;20288;-65
2022/12/08 10:27:20;;;;;;;3.88;3.55;;;3.10;99.90;;;;;;4968237;28;20207;-64
2022/12/08 10:29:46;;;;;;;4.32;1.95;;;3.10;99.90;;;;;;4972371;28;20208;-65
2022/12/08 10:32:18;;;;;;;2.10;1.85;;;3.10;99.90;;;;;;4968247;28;20546;-65
2022/12/08 10:35:04;;;;;;;4.13;3.92;;;3.10;99.90;;;;;;4965559;28;20209;-65
2022/12/08 10:37:32;;;;;;;2.05;1.85;;;3.10;99.90;;;;;;4965307;28;20200;-65
2022/12/08 10:40:01;;;;;;;3.47;2.90;;;3.20;99.90;;;;;;4968122;28;20209;-64
2022/12/08 10:42:35;;;;;;;2.95;2.75;;;3.30;99.90;;;;;;4965965;28;20229;-65
2022/12/08 10:45:16;;;;;;;2.08;1.98;;;3.40;99.90;;;;;;4972885;28;20677;-65
2022/12/08 10:47:47;;;;;;;1.10;1.05;;;3.40;99.90;;;;;;4972005;28;20205;-65
2022/12/08 10:50:20;;;;;;;1.95;1.85;;;3.50;99.90;;;;;;4972037;28;20211;-65
2022/12/08 10:52:55;;;;;;;0.60;0.60;;;3.60;99.90;;;;;;4971627;28;20200;-65
2022/12/08 10:55:23;;;;;;;2.60;2.40;;;3.80;99.90;;;;;;4964191;28;20691;-65
2022/12/08 10:57:49;;;;;;;3.25;3.05;;;3.90;99.90;;;;;;4971908;28;20201;-66
2022/12/08 11:00:19;;;;;;;1.05;1.05;;;3.90;99.90;;;;;;4963952;28;20218;-65
2022/12/08 11:02:58;;;;;;;0.80;0.80;;;3.90;99.90;;;;;;4969681;28;20220;-65
2022/12/08 11:05:29;;;;;;;1.75;1.55;;;3.80;99.90;;;;;;4968974;28;20235;-65
2022/12/08 11:07:57;;;;;;;1.63;1.52;;;3.70;99.90;;;;;;4965765;28;20208;-64
2022/12/08 11:10:34;;;;;;;1.42;1.42;;;3.60;99.90;;;;;;4961742;28;20271;-64
2022/12/08 11:13:03;;;;;;;1.17;1.02;;;3.60;99.90;;;;;;4972894;28;20228;-66
2022/12/08 11:15:36;;;;;;;0.55;0.55;;;3.60;99.90;;;;;;4969630;28;20204;-65
2022/12/08 11:18:09;;;;;;;2.15;1.20;;;3.70;99.90;;;;;;4970365;28;20283;-64
2022/12/08 11:20:40;;;;;;;0.35;0.35;;;3.70;99.90;;;;;;4971080;28;20225;-65
2022/12/08 11:23:20;;;;;;;0.30;0.30;;;3.80;99.90;;;;;;4962794;28;20303;-65
2022/12/08 11:25:48;;;;;;;0.60;0.60;;;3.90;99.90;;;;;;4970423;28;20251;-65
2022/12/08 11:28:24;;;;;;;0.22;0.22;;;4.00;99.90;;;;;;4972348;28;20211;-64
2022/12/08 11:30:57;;;;;;;0.40;0.40;;;4.00;99.90;;;;;;4970168;28;20231;-66
2022/12/08 11:33:25;;;;;;;1.05;0.82;;;4.00;99.90;;;;;;4972519;28;20205;-66
2022/12/08 11:35:56;;;;;;;1.55;1.45;;;4.00;99.90;;;;;;4973909;28;20690;-65
2022/12/08 11:38:26;;;;;;;1.75;0.30;;;4.00;99.90;;;;;;4971470;28;20211;-65
2022/12/08 11:40:55;;;;;;;1.20;1.20;;;3.90;99.90;;;;;;4963660;28;20613;-66
2022/12/08 11:43:27;;;;;;;0.28;0.25;;;3.90;99.90;;;;;;4958376;28;20304;-65
2022/12/08 11:45:58;;;;;;;0.63;0.63;;;3.90;99.90;;;;;;4966891;28;20207;-65
2022/12/08 11:48:31;;;;;;;0.55;0.55;;;3.90;99.90;;;;;;4965023;28;20208;-65
2022/12/08 11:51:02;;;;;;;0.93;0.93;;;3.90;99.90;;;;;;4969360;28;21109;-65
2022/12/08 11:53:37;;;;;;;1.95;1.25;;;4.00;99.90;;;;;;4972990;28;20201;-66
2022/12/08 11:56:10;;;;;;;1.40;0.60;;;4.00;99.90;;;;;;4964355;28;20267;-65
2022/12/08 11:58:40;;;;;;;0.80;0.80;;;3.90;99.90;;;;;;4970184;28;20243;-66
2022/12/08 12:01:16;;;;;;;0.90;0.90;;;4.00;99.90;;;;;;4968475;28;20237;-65
2022/12/08 12:03:47;;;;;;;0.85;0.85;;;3.90;99.90;;;;;;4967741;28;20324;-65
2022/12/08 12:06:34;;;;;;;1.80;1.80;;;3.90;99.90;;;;;;4969529;28;20213;-65
2022/12/08 12:09:12;;;;;;;0.20;0.20;;;3.80;99.90;;;;;;4969340;28;20643;-65
2022/12/08 12:14:46;;;;;;;0.20;0.20;;;3.80;99.90;;;;;;4969401;28;20228;-65
2022/12/08 12:17:32;;;;;;;0.55;0.55;;;3.70;99.90;;;;;;4963115;28;20687;-66
2022/12/08 12:20:04;;;;;;;0.30;0.30;;;3.70;99.90;;;;;;4969306;28;20208;-65
2022/12/08 12:22:34;;;;;;;0.20;0.20;;;3.70;99.90;;;;;;4968142;28;20612;-65
2022/12/08 12:25:03;;;;;;;0.20;0.20;;;3.70;99.90;;;;;;4964588;28;20246;-66
2022/12/08 12:27:34;;;;;;;0.43;0.43;;;3.60;99.90;;;;;;4971070;28;20217;-65
2022/12/08 12:30:06;;;;;;;0.30;0.30;;;3.60;99.90;;;;;;4966336;28;20673;-65
2022/12/08 12:32:43;;;;;;;0.20;0.20;;;3.50;99.90;;;;;;4966642;28;20579;-65
2022/12/08 12:35:16;;;;;;;0.65;0.65;;;3.50;99.90;;;;;;4970323;28;20236;-64
2022/12/08 12:37:43;;;;;;;1.17;0.70;;;3.50;99.90;;;;;;4972625;28;20205;-64
2022/12/08 12:40:19;;;;;;;0.50;0.50;;;3.60;99.90;;;;;;4992635;23;20293;-68
2022/12/08 12:42:49;;;;;;;0.88;0.88;;;3.70;99.90;;;;;;4994249;28;20295;-69
2022/12/08 12:45:29;;;;;;;0.40;0.40;;;3.70;99.90;;;;;;4991760;28;20227;-69
2022/12/08 12:48:22;;;;;;;0.40;0.40;;;3.70;99.90;;;;;;4989007;28;20212;-68
2022/12/08 12:50:49;;;;;;;0.50;0.50;;;3.60;99.90;;;;;;4983932;28;20262;-69
2022/12/08 12:53:48;;;;;;;0.50;0.50;;;3.50;99.90;;;;;;4992672;28;20202;-69
2022/12/08 12:56:53;;;;;;;0.30;0.30;;;3.40;99.90;;;;;;4988056;28;20204;-70
2022/12/08 12:59:43;;;;;;;0.43;0.43;;;3.40;99.90;;;;;;4988180;28;20208;-69
2022/12/08 13:02:23;;;;;;;0.20;0.20;;;3.30;99.90;;;;;;4986301;28;20288;-69
2022/12/08 13:04:56;;;;;;;0.90;0.90;;;3.30;99.90;;;;;;4985079;28;20225;-70
2022/12/08 13:07:25;;;;;;;0.75;0.75;;;3.30;99.90;;;;;;4981633;28;20208;-69
2022/12/08 13:09:58;;;;;;;1.50;1.30;;;3.30;99.90;;;;;;4987112;28;20303;-70
2022/12/08 13:12:27;;;;;;;0.50;0.50;;;3.20;99.90;;;;;;4989085;28;20212;-70
2022/12/08 13:14:59;;;;;;;0.55;0.55;;;3.20;99.90;;;;;;4975659;28;20907;-70
2022/12/08 13:17:30;;;;;;;0.20;0.20;;;3.20;99.90;;;;;;4980992;28;20227;-71
2022/12/08 13:19:59;;;;;;;0.60;0.60;;;3.10;99.90;;;;;;4984291;28;20224;-68
2022/12/08 13:23:05;;;;;;;2.15;1.08;;;3.10;99.90;;;;;;4982227;28;20216;-69
2022/12/08 13:25:54;;;;;;;2.33;0.93;;;3.10;99.90;;;;;;4953708;28;20231;-70
2022/12/08 13:28:28;;;;;;;0.50;0.47;;;3.10;99.90;;;;;;4986766;28;20376;-69
2022/12/08 13:30:56;;;;;;;0.63;0.63;;;3.20;99.90;;;;;;4993700;28;20223;-68
2022/12/08 13:33:27;;;;;;;0.20;0.20;;;3.20;99.90;;;;;;4985226;28;20215;-68
2022/12/08 13:36:03;;;;;;;0.80;0.80;;;3.30;99.90;;;;;;4976826;28;20311;-68
2022/12/08 13:38:34;;;;;;;0.82;0.82;;;3.30;99.90;;;;;;4975283;28;20225;-69
2022/12/08 13:41:06;;;;;;;1.10;1.10;;;3.40;99.90;;;;;;4983361;28;20239;-68
2022/12/08 13:43:43;;;;;;;1.05;0.95;;;3.50;99.90;;;;;;4990485;28;20215;-70
2022/12/08 13:46:12;;;;;;;0.40;0.40;;;3.60;99.90;;;;;;4988719;28;20667;-69
2022/12/08 13:48:46;;;;;;;0.65;0.55;;;3.70;99.90;;;;;;4984862;28;20308;-70
2022/12/08 13:51:17;;;;;;;0.20;0.20;;;3.70;99.90;;;;;;4982840;28;20244;-68
2022/12/08 13:53:51;;;;;;;1.25;1.15;;;3.70;99.90;;;;;;4992496;28;20199;-68
2022/12/08 13:56:19;;;;;;;0.55;0.55;;;3.70;99.90;;;;;;4990617;28;20223;-69
2022/12/08 13:58:47;;;;;;;2.10;1.88;;;3.70;99.90;;;;;;4989427;28;20208;-69
2022/12/08 14:01:17;;;;;;;1.13;0.65;;;3.70;99.90;;;;;;4992050;28;20224;-68
2022/12/08 14:03:51;;;;;;;0.57;0.55;;;3.80;99.90;;;;;;4992762;28;20319;-69
2022/12/08 14:06:20;;;;;;;0.57;0.57;;;3.80;99.90;;;;;;4989537;28;20240;-69
2022/12/08 14:08:52;;;;;;;1.08;1.08;;;3.80;99.90;;;;;;4992140;28;20689;-69
2022/12/08 14:11:33;;;;;;;0.35;0.35;;;3.80;99.90;;;;;;4987527;28;20305;-70
2022/12/08 14:14:03;;;;;;;1.38;1.38;;;3.80;99.90;;;;;;4989442;28;20207;-69
2022/12/08 14:16:36;;;;;;;3.70;0.90;;;3.80;99.90;;;;;;4987044;28;20228;-68
2022/12/08 14:19:09;;;;;;;0.75;0.75;;;3.80;99.90;;;;;;4981372;28;20300;-69
2022/12/08 14:21:36;;;;;;;2.47;1.65;;;3.80;99.90;;;;;;4980957;28;20244;-70
2022/12/08 14:24:03;;;;;;;1.05;1.05;;;3.80;99.90;;;;;;4977205;28;20226;-70
2022/12/08 14:26:34;;;;;;;1.42;1.02;;;3.80;99.90;;;;;;4983874;28;20209;-68
2022/12/08 14:29:02;;;;;;;0.50;0.50;;;3.80;99.90;;;;;;4989374;28;20212;-69
2022/12/08 14:31:29;;;;;;;1.23;0.98;;;3.70;99.90;;;;;;4997511;28;20235;-70
2022/12/08 14:33:56;;;;;;;0.40;0.40;;;3.70;99.90;;;;;;4997863;28;20205;-72
2022/12/08 14:36:23;;;;;;;1.00;0.63;;;3.70;99.90;;;;;;4980838;28;20248;-70
2022/12/08 14:38:54;;;;;;;0.30;0.30;;;3.60;99.90;;;;;;4986123;28;20208;-70
2022/12/08 14:41:26;;;;;;;0.30;0.30;;;3.60;99.90;;;;;;4992933;28;20247;-68
2022/12/08 14:43:59;;;;;;;0.20;0.20;;;3.60;99.90;;;;;;4987233;28;20252;-67
2022/12/08 14:46:28;;;;;;;0.63;0.63;;;3.50;99.90;;;;;;4994123;28;20218;-67
2022/12/08 14:48:56;;;;;;;0.90;0.90;;;3.40;99.90;;;;;;4982061;28;20586;-68
2022/12/08 14:51:29;;;;;;;0.30;0.30;;;3.40;99.90;;;;;;4990224;28;20302;-69
2022/12/08 14:53:58;;;;;;;0.20;0.20;;;3.30;99.90;;;;;;4989233;28;20291;-69
2022/12/08 14:56:27;;;;;;;0.52;0.52;;;3.30;99.90;;;;;;4990649;28;20280;-68
2022/12/08 14:59:04;;;;;;;0.80;0.80;;;3.30;99.90;;;;;;4994946;28;20207;-68
2022/12/08 15:01:34;;;;;;;0.80;0.80;;;3.30;99.90;;;;;;4982446;28;20314;-68
2022/12/08 15:04:06;;;;;;;1.00;1.00;;;3.30;99.90;;;;;;4990431;28;20454;-69
2022/12/08 15:06:33;;;;;;;1.15;1.02;;;3.30;99.90;;;;;;4987532;28;20594;-68
2022/12/08 15:09:13;;;;;;;1.70;1.70;;;3.30;99.90;;;;;;5002715;28;20188;-67
2022/12/08 15:11:40;;;;;;;2.13;2.08;;;3.20;99.90;;;;;;4996797;28;20232;-68
2022/12/08 15:14:27;;;;;;;0.93;0.93;;;3.20;99.90;;;;;;4994715;28;20693;-68
2022/12/08 15:16:55;;;;;;;5.18;4.65;;;3.20;99.90;;;;;;4990779;28;20208;-67
2022/12/08 15:19:28;;;;;;;0.88;0.88;;;3.20;99.90;;;;;;4994154;28;20279;-68
2022/12/08 15:21:57;;;;;;;0.38;0.38;;;3.20;99.90;;;;;;4987171;28;20316;-68
2022/12/08 15:24:25;;;;;;;0.85;0.85;;;3.20;99.90;;;;;;4985536;28;20240;-68
2022/12/08 15:26:52;;;;;;;0.98;0.98;;;3.30;99.90;;;;;;4986272;28;20219;-68
2022/12/08 15:29:21;;;;;;;1.20;0.85;;;3.30;99.90;;;;;;4985925;28;20620;-68
2022/12/08 15:31:48;;;;;;;0.80;0.80;;;3.30;99.90;;;;;;4988070;28;20227;-68
2022/12/08 15:34:17;;;;;;;1.15;1.00;;;3.20;99.90;;;;;;4989030;28;20244;-68
2022/12/08 15:36:44;;;;;;;1.02;1.02;;;3.20;99.90;;;;;;4985260;28;20286;-68
2022/12/08 15:39:27;;;;;;;0.43;0.43;;;3.10;99.90;;;;;;4983917;28;20255;-68
2022/12/08 15:41:53;;;;;;;0.35;0.35;;;2.90;99.90;;;;;;4982194;28;20725;-69
2022/12/08 15:44:20;;;;;;;1.10;0.90;;;2.60;99.90;;;;;;4992470;28;20267;-69
2022/12/08 15:46:48;;;;;;;0.60;0.60;;;2.50;99.90;;;;;;4991789;28;20219;-69
2022/12/08 15:49:20;;;;;;;1.00;1.00;;;2.50;99.90;;;;;;4984005;28;20670;-69
2022/12/08 15:51:48;;;;;;;0.73;0.73;;;2.40;99.90;;;;;;4985699;28;20224;-68
2022/12/08 15:54:15;;;;;;;0.82;0.82;;;2.40;99.90;;;;;;4975352;28;20211;-69
2022/12/08 15:56:45;;;;;;;2.85;2.65;;;2.40;99.90;;;;;;4988616;28;20200;-70
2022/12/08 15:59:16;;;;;;;1.45;1.45;;;2.30;99.90;;;;;;4988339;28;20208;-69
2022/12/08 16:01:42;;;;;;;2.58;0.93;;;2.30;99.90;;;;;;4989322;28;20243;-69
2022/12/08 16:04:13;;;;;;;1.23;1.05;;;2.30;99.90;;;;;;4990661;28;20556;-69
2022/12/08 16:06:42;;;;;;;0.30;0.30;;;2.30;99.90;;;;;;4989302;28;20196;-68
2022/12/08 16:09:16;;;;;;;0.80;0.80;;;2.30;99.90;;;;;;4981910;28;20212;-69
2022/12/08 16:14:27;;;;;;;6.28;1.33;;;2.20;99.90;;;;;;4991758;28;20222;-68
2022/12/08 16:16:54;;;;;;;2.33;1.33;;;2.20;99.90;;;;;;4990354;28;20208;-68
2022/12/08 16:19:21;;;;;;;0.70;0.70;;;2.20;99.90;;;;;;4989854;28;20212;-68
2022/12/08 16:21:49;;;;;;;1.05;1.05;;;2.20;99.90;;;;;;4986614;28;20590;-69
2022/12/08 16:24:16;;;;;;;3.30;1.33;;;2.20;99.90;;;;;;4987302;28;20208;-69
2022/12/08 16:26:42;;;;;;;2.13;2.03;;;2.20;99.90;;;;;;4981040;28;20213;-68
2022/12/08 16:29:15;;;;;;;0.75;0.75;;;2.20;99.90;;;;;;4991759;28;20235;-68
2022/12/08 16:31:42;;;;;;;1.60;1.52;;;2.20;99.90;;;;;;4963873;28;20258;-68
2022/12/08 16:34:08;;;;;;;1.60;1.60;;;2.20;99.90;;;;;;4988166;28;20204;-70
2022/12/08 16:36:35;;;;;;;3.42;3.33;;;2.20;99.90;;;;;;4980955;28;20646;-68
2022/12/08 16:39:03;;;;;;;3.30;3.03;;;2.20;99.90;;;;;;4992212;28;20203;-68
2022/12/08 16:44:26;;;;;;;1.60;1.60;;;2.20;99.90;;;;;;4912144;29;20210;-68
2022/12/08 16:46:52;;;;;;;2.15;2.08;;;2.20;99.90;;;;;;4970978;28;20220;-68
2022/12/08 16:49:19;;;;;;;1.77;1.42;;;2.20;99.90;;;;;;4991788;28;20243;-69
2022/12/08 16:51:46;;;;;;;3.65;3.03;;;2.20;99.90;;;;;;4991514;28;20728;-70
2022/12/08 16:54:14;;;;;;;3.80;3.60;;;2.20;99.90;;;;;;4991590;28;20204;-68
2022/12/08 16:56:40;;;;;;;5.78;2.53;;;2.20;99.90;;;;;;4991664;28;20224;-68
2022/12/08 16:59:07;;;;;;;1.40;1.35;;;2.20;99.90;;;;;;4990285;28;20543;-69
2022/12/08 17:01:34;;;;;;;5.15;3.20;;;2.20;99.90;;;;;;4991979;28;20227;-68
2022/12/08 17:04:01;;;;;;;3.50;2.83;;;2.30;99.90;;;;;;4992705;28;20641;-68
2022/12/08 17:06:27;;;;;;;2.58;2.38;;;2.30;99.90;;;;;;4988786;28;20228;-68
2022/12/08 17:08:54;;;;;;;3.80;3.60;;;2.30;99.90;;;;;;4990537;28;20608;-68
2022/12/08 17:11:25;;;;;;;2.15;1.70;;;2.30;99.90;;;;;;4997126;28;20231;-69
2022/12/08 17:13:52;;;;;;;5.10;4.68;;;2.30;99.90;;;;;;4995279;28;20196;-68
2022/12/08 17:16:19;;;;;;;2.75;2.55;;;2.30;99.90;;;;;;4989593;28;20667;-68
2022/12/08 17:18:46;;;;;;;5.45;4.18;;;2.30;99.90;;;;;;4986544;28;20207;-69
2022/12/08 17:21:15;;;;;;;4.05;3.83;;;2.40;99.90;;;;;;4992099;28;20609;-68
2022/12/08 17:23:42;;;;;;;4.80;3.38;;;2.40;99.90;;;;;;4990145;28;20311;-69
2022/12/08 17:26:10;;;;;;;5.40;4.90;;;2.40;99.90;;;;;;4993774;28;20231;-69
2022/12/08 17:28:38;;;;;;;4.55;4.25;;;2.50;99.90;;;;;;4985739;28;20271;-70
2022/12/08 17:31:10;;;;;;;10.57;4.80;;;2.50;99.90;;;;;;4995991;28;20258;-69
2022/12/08 17:33:36;;;;;;;9.73;6.50;;;2.50;99.90;;;;;;4996180;28;20262;-70
2022/12/08 17:36:03;;;;;;;9.48;8.65;;;2.50;99.90;;;;;;4979399;28;20212;-68
2022/12/08 17:38:30;;;;;;;8.05;7.30;;;2.50;99.90;;;;;;4996158;28;20212;-68
2022/12/08 17:41:02;;;;;;;6.35;3.95;;;2.50;99.90;;;;;;4994278;28;20247;-68
2022/12/08 17:43:28;;;;;;;4.78;4.47;;;2.60;99.90;;;;;;4996360;28;20509;-69
2022/12/08 17:45:57;;;;;;;4.10;3.85;;;2.60;99.90;;;;;;4995614;28;20227;-69
2022/12/08 17:48:23;;;;;;;5.78;4.07;;;2.50;99.90;;;;;;4993804;28;20659;-69
2022/12/08 17:50:50;;;;;;;4.15;3.80;;;2.60;99.90;;;;;;4995489;28;20768;-69
2022/12/08 17:53:17;;;;;;;3.30;3.10;;;2.60;99.90;;;;;;4994162;28;20216;-70
2022/12/08 17:55:52;;;;;;;4.13;3.80;;;2.50;99.90;;;;;;4989537;28;20209;-69
2022/12/08 17:58:19;;;;;;;2.95;1.90;;;2.60;99.90;;;;;;4991949;28;20712;-70
2022/12/08 18:00:46;;;;;;;3.42;1.95;;;2.60;99.90;;;;;;4995297;28;20732;-70
2022/12/08 18:03:14;;;;;;;2.55;2.28;;;2.50;99.90;;;;;;4995092;28;20223;-68
2022/12/08 18:05:40;;;;;;;4.38;4.07;;;2.50;99.90;;;;;;4979109;28;20279;-69
2022/12/08 18:08:07;;;;;;;1.77;1.67;;;2.60;99.90;;;;;;4990341;28;20219;-69
2022/12/08 18:10:34;;;;;;;4.43;3.65;;;2.50;99.90;;;;;;4990957;28;20231;-68
2022/12/08 18:13:01;;;;;;;2.90;2.80;;;2.50;99.90;;;;;;4993975;28;20627;-68
2022/12/08 18:15:28;;;;;;;3.55;3.45;;;2.50;99.90;;;;;;4994273;28;20200;-70
2022/12/08 18:17:54;;;;;;;3.45;3.22;;;2.40;99.90;;;;;;4995079;28;20208;-69
2022/12/08 18:20:23;;;;;;;3.50;3.20;;;2.40;99.90;;;;;;4981194;28;20236;-70
2022/12/08 18:22:49;;;;;;;3.33;2.95;;;2.40;99.90;;;;;;4991971;28;20200;-69